Time;durP1;ratioP1;P1;durP2;ratioP2;P2;SDS_P1;SDS_P2;PMS_P1;PMS_P2;Temp;Humidity;BMP_temperature;BMP_pressure;BME280_temperature;BME280_humidity;BME280_pressure;Samples;Min_cycle;Max_cycle;Signal;HPM_P1;HPM_P2
2022/11/04 00:01:20;;;;;;;10.93;8.20;;;;;;;11.47;99.79;98725.34;5080817;28;20508;-62
2022/11/04 00:03:47;;;;;;;9.57;7.40;;;;;;;11.45;100.00;98738.03;5084944;28;20507;-62
2022/11/04 00:06:16;;;;;;;7.93;7.17;;;;;;;11.41;100.00;98741.28;5104170;28;20553;-62
2022/11/04 00:08:43;;;;;;;8.77;7.97;;;;;;;11.54;99.93;98733.44;5103657;28;20470;-62
2022/11/04 00:13:55;;;;;;;11.23;7.80;;;;;;;11.44;99.78;98730.19;5098752;28;20438;-62
2022/11/04 00:19:05;;;;;;;9.13;8.00;;;;;;;11.37;100.00;98739.97;5089821;28;20426;-62
2022/11/04 00:29:47;;;;;;;7.73;6.93;;;;;;;11.43;99.46;98761.50;5091525;28;20450;-61
2022/11/04 00:34:58;;;;;;;8.53;7.73;;;;;;;11.44;99.08;98730.19;5104731;28;20430;-61
2022/11/04 00:37:25;;;;;;;9.23;7.10;;;;;;;11.39;99.06;98716.56;5104084;28;20536;-60
2022/11/04 00:39:52;;;;;;;9.57;7.00;;;;;;;11.43;98.58;98734.72;5103946;28;20537;-61
2022/11/04 00:42:20;;;;;;;9.37;7.30;;;;;;;11.48;98.84;98750.25;5103642;28;20494;-61
2022/11/04 00:44:46;;;;;;;9.87;7.40;;;;;;;11.42;98.71;98753.63;5103732;28;20487;-61
2022/11/04 00:47:13;;;;;;;6.20;5.60;;;;;;;11.46;98.00;98749.59;5102997;28;20483;-62
2022/11/04 00:49:41;;;;;;;6.57;5.83;;;;;;;11.48;97.50;98756.41;5103488;28;20484;-61
2022/11/04 00:52:08;;;;;;;8.43;6.50;;;;;;;11.51;97.27;98752.56;5103697;28;20475;-61
2022/11/04 00:54:35;;;;;;;6.57;5.97;;;;;;;11.57;97.07;98757.16;5104092;28;20466;-61
2022/11/04 00:57:01;;;;;;;6.10;5.50;;;;;;;11.64;96.92;98765.28;5103363;28;20537;-61
2022/11/04 00:59:29;;;;;;;6.80;5.80;;;;;;;11.57;97.23;98770.53;5103367;28;20435;-62
2022/11/04 01:01:56;;;;;;;8.30;5.63;;;;;;;11.49;97.80;98775.97;5102137;28;20516;-61
2022/11/04 01:04:23;;;;;;;7.40;6.20;;;;;;;11.58;98.03;98758.84;5096232;28;20507;-62
2022/11/04 01:06:49;;;;;;;6.87;6.10;;;;;;;11.54;97.84;98764.72;5083700;28;20476;-62
2022/11/04 01:09:16;;;;;;;6.27;5.27;;;;;;;11.54;97.78;98762.88;5091240;28;20472;-62
2022/11/04 01:11:42;;;;;;;8.50;6.10;;;;;;;11.56;98.08;98766.22;5099443;28;20503;-61
2022/11/04 01:14:09;;;;;;;6.43;5.73;;;;;;;11.64;97.56;98749.22;5097103;28;20440;-62
2022/11/04 01:16:38;;;;;;;8.60;6.17;;;;;;;11.48;97.62;98755.59;5089819;28;20522;-62
2022/11/04 01:19:04;;;;;;;6.80;6.10;;;;;;;11.48;97.49;98756.41;5099854;28;20440;-61
2022/11/04 01:21:31;;;;;;;7.23;5.50;;;;;;;11.43;97.16;98752.63;5096450;28;20473;-61
2022/11/04 01:23:59;;;;;;;5.80;5.00;;;;;;;11.49;96.46;98771.47;5088123;28;20860;-62
2022/11/04 01:26:27;;;;;;;6.30;5.00;;;;;;;11.50;96.17;98772.31;5091393;28;20480;-62
2022/11/04 01:28:55;;;;;;;5.03;4.53;;;;;;;11.43;95.73;98793.59;5087864;28;20475;-62
2022/11/04 01:31:23;;;;;;;4.93;4.47;;;;;;;11.44;95.73;98807.81;5095537;28;20504;-61
2022/11/04 01:33:52;;;;;;;4.37;3.97;;;;;;;11.42;95.45;98813.38;5095892;28;20444;-62
2022/11/04 01:36:19;;;;;;;5.50;4.03;;;;;;;11.37;94.29;98830.94;5083682;28;20515;-62
2022/11/04 01:38:46;;;;;;;4.27;3.87;;;;;;;11.42;93.55;98832.09;5088670;28;20957;-62
2022/11/04 01:41:18;;;;;;;4.20;3.80;;;;;;;11.39;93.06;98850.34;5088169;28;20467;-62
2022/11/04 01:43:49;;;;;;;3.63;3.33;;;;;;;11.35;93.33;98860.56;5080905;28;20468;-62
2022/11/04 01:46:26;;;;;;;3.80;3.30;;;;;;;11.32;93.41;98871.66;5062404;28;20501;-62
2022/11/04 01:48:56;;;;;;;3.90;3.60;;;;;;;11.23;93.68;98892.28;5066003;28;20471;-62
2022/11/04 01:51:23;;;;;;;3.30;3.00;;;;;;;11.19;93.87;98904.34;5062886;28;20503;-62
2022/11/04 01:53:50;;;;;;;3.87;3.30;;;;;;;11.24;93.65;98906.47;5075299;28;20456;-62
2022/11/04 01:56:19;;;;;;;3.53;3.20;;;;;;;11.09;93.20;98893.03;5061345;28;20851;-62
2022/11/04 01:58:50;;;;;;;2.90;2.70;;;;;;;11.21;92.40;98902.31;5070672;28;20451;-62
2022/11/04 02:01:16;;;;;;;3.43;3.17;;;;;;;11.28;91.87;98903.28;5066696;28;20526;-62
2022/11/04 02:03:48;;;;;;;3.90;3.60;;;;;;;11.02;91.27;98900.09;5074396;28;20469;-62
2022/11/04 02:06:19;;;;;;;4.40;3.00;;;;;;;11.08;91.47;98896.72;5064605;28;20512;-63
2022/11/04 02:08:46;;;;;;;3.67;3.30;;;;;;;11.05;91.63;98903.25;5081769;28;20472;-62
2022/11/04 02:12:48;;;;;;;4.77;3.60;;;;;;;10.92;91.35;98903.84;5074915;28;20494;-61
2022/11/04 02:13:59;;;;;;;4.30;3.90;;;;;;;10.97;91.35;98902.47;5078150;28;20448;-61
2022/11/04 02:16:36;;;;;;;5.00;4.60;;;;;;;10.90;91.95;98899.66;5080199;28;20479;-61
2022/11/04 02:19:10;;;;;;;4.90;4.40;;;;;;;10.78;91.87;98895.72;5071370;28;20472;-61
2022/11/04 02:22:05;;;;;;;6.87;5.20;;;;;;;10.68;91.50;98894.09;5061474;28;20506;-61
2022/11/04 02:25:07;;;;;;;6.50;5.20;;;;;;;10.88;90.86;98896.34;5077775;28;20566;-61
2022/11/04 02:27:46;;;;;;;5.60;4.70;;;;;;;10.68;91.44;98901.31;5036358;28;20490;-62
2022/11/04 02:30:14;;;;;;;6.30;5.47;;;;;;;10.67;90.89;98902.28;5077036;28;20499;-62
2022/11/04 02:32:58;;;;;;;5.60;5.00;;;;;;;10.72;90.40;98890.06;5081586;28;20510;-62
2022/11/04 02:35:30;;;;;;;6.90;5.60;;;;;;;10.72;90.11;98894.59;5063015;28;20464;-62
2022/11/04 02:38:04;;;;;;;7.60;5.63;;;;;;;10.71;89.87;98899.09;5079783;28;20936;-62
2022/11/04 02:40:38;;;;;;;7.43;5.40;;;;;;;10.83;89.63;98899.56;5074186;28;20476;-62
2022/11/04 02:43:12;;;;;;;6.27;5.67;;;;;;;10.66;89.90;98903.28;5088048;28;20514;-62
2022/11/04 02:45:44;;;;;;;8.70;6.07;;;;;;;10.81;89.39;98898.88;5088617;28;21026;-62
2022/11/04 02:48:13;;;;;;;7.40;5.50;;;;;;;10.77;89.10;98899.41;5082720;28;20472;-62
2022/11/04 02:50:43;;;;;;;6.90;6.30;;;;;;;10.71;88.67;98890.25;5083868;28;21034;-61
2022/11/04 02:53:14;;;;;;;7.13;6.27;;;;;;;10.78;88.36;98906.41;5082411;28;20459;-62
2022/11/04 02:55:44;;;;;;;8.20;7.40;;;;;;;10.71;88.71;98907.13;5090230;28;20476;-61
2022/11/04 02:58:14;;;;;;;8.00;7.20;;;;;;;10.48;89.22;98904.38;5082649;28;20444;-63
2022/11/04 03:00:43;;;;;;;8.10;7.17;;;;;;;10.46;88.37;98897.56;5089707;28;20463;-63
2022/11/04 03:03:13;;;;;;;8.53;7.73;;;;;;;10.61;87.81;98897.66;5083485;28;20543;-63
2022/11/04 03:05:43;;;;;;;8.20;7.37;;;;;;;10.42;88.35;98912.28;5081638;28;20472;-63
2022/11/04 03:08:15;;;;;;;9.53;8.47;;;;;;;10.62;88.23;98900.13;5092314;28;20447;-63
2022/11/04 03:10:44;;;;;;;8.80;7.90;;;;;;;10.50;88.50;98907.72;5067847;28;20554;-63
2022/11/04 03:13:14;;;;;;;10.33;8.13;;;;;;;10.39;88.61;98896.56;5101466;28;20886;-64
2022/11/04 03:15:49;;;;;;;8.43;7.73;;;;;;;10.46;88.62;98897.56;5081376;28;20484;-63
2022/11/04 03:18:22;;;;;;;9.00;7.97;;;;;;;10.46;88.80;98910.91;5086297;28;20487;-64
2022/11/04 03:20:49;;;;;;;9.57;8.50;;;;;;;10.44;88.47;98907.59;5082566;28;20492;-62
2022/11/04 03:23:16;;;;;;;8.93;8.00;;;;;;;10.35;88.43;98912.13;5082415;28;20488;-62
2022/11/04 03:25:45;;;;;;;9.57;8.07;;;;;;;10.31;88.25;98914.31;5071166;28;20496;-63
2022/11/04 03:28:21;;;;;;;8.27;7.50;;;;;;;10.42;88.14;98934.47;5082715;28;20461;-62
2022/11/04 03:30:51;;;;;;;8.93;8.00;;;;;;;10.44;87.66;98953.00;5079881;28;20547;-62
2022/11/04 03:33:21;;;;;;;8.83;8.03;;;;;;;10.38;87.50;98951.84;5097150;28;20496;-62
2022/11/04 03:35:47;;;;;;;8.43;7.57;;;;;;;10.23;88.57;98948.19;5083140;28;20857;-62
2022/11/04 03:38:14;;;;;;;9.07;8.13;;;;;;;10.17;89.04;98950.53;5100833;28;20459;-62
2022/11/04 03:40:41;;;;;;;8.10;7.30;;;;;;;10.20;88.85;98957.34;5102311;28;20566;-62
2022/11/04 03:43:11;;;;;;;9.37;8.47;;;;;;;10.14;89.07;98955.38;5093656;28;20511;-62
2022/11/04 03:45:37;;;;;;;10.33;8.43;;;;;;;10.12;89.23;98966.22;5100633;28;20543;-62
2022/11/04 03:48:06;;;;;;;9.37;8.40;;;;;;;10.08;89.57;98956.88;5084678;28;20877;-62
2022/11/04 03:50:34;;;;;;;9.63;8.50;;;;;;;10.06;89.19;98966.91;5085316;28;20478;-62
2022/11/04 03:53:01;;;;;;;8.17;7.37;;;;;;;10.09;89.16;98977.25;5096110;28;20470;-61
2022/11/04 03:55:36;;;;;;;9.23;8.10;;;;;;;10.20;88.77;98989.41;5097051;28;20880;-62
2022/11/04 03:58:04;;;;;;;9.90;8.40;;;;;;;10.31;88.26;98981.09;5100441;28;20467;-62
2022/11/04 04:00:36;;;;;;;8.83;7.93;;;;;;;10.28;89.13;98980.56;5086010;28;20498;-62
2022/11/04 04:03:08;;;;;;;9.10;8.13;;;;;;;10.32;88.55;98982.75;5099614;28;20476;-62
2022/11/04 04:05:39;;;;;;;10.70;9.60;;;;;;;10.30;88.90;98987.41;5085392;28;20488;-63
2022/11/04 04:08:15;;;;;;;11.97;10.07;;;;;;;10.28;89.13;98989.41;5101016;28;20479;-62
2022/11/04 04:10:43;;;;;;;9.90;8.90;;;;;;;10.12;89.57;98971.56;5064570;28;20514;-62
2022/11/04 04:13:20;;;;;;;12.27;9.50;;;;;;;10.29;89.17;98976.88;5079682;28;20484;-62
2022/11/04 04:15:51;;;;;;;10.20;9.20;;;;;;;10.29;89.17;98975.03;5099565;28;20994;-62
2022/11/04 04:18:25;;;;;;;10.00;8.87;;;;;;;10.36;89.16;98975.22;5084038;28;20464;-62
2022/11/04 04:20:54;;;;;;;9.60;8.70;;;;;;;10.30;89.19;98975.88;5095875;28;20502;-62
2022/11/04 04:28:55;;;;;;;10.50;8.80;;;;;;;10.34;88.64;98975.38;5097480;28;20933;-61
2022/11/04 04:34:09;;;;;;;10.50;8.17;;;;;;;10.26;88.13;98983.41;5102621;28;20438;-61
2022/11/04 04:36:41;;;;;;;11.13;9.53;;;;;;;10.02;88.72;98986.13;5101086;28;20486;-61
2022/11/04 04:47:32;;;;;;;10.03;8.07;;;;;;;10.17;88.00;99027.13;5072483;28;20505;-62
2022/11/04 04:50:01;;;;;;;11.30;9.53;;;;;;;10.31;87.81;99028.28;5083402;28;20464;-62
2022/11/04 04:52:31;;;;;;;11.20;8.23;;;;;;;10.35;87.02;99040.34;5082769;28;20508;-61
2022/11/04 04:54:57;;;;;;;10.27;9.27;;;;;;;10.33;87.15;99037.84;5080878;28;20476;-62
2022/11/04 04:57:24;;;;;;;9.87;8.87;;;;;;;10.36;86.88;99042.00;5087372;28;20476;-61
2022/11/04 04:59:50;;;;;;;8.90;8.00;;;;;;;10.40;86.67;99053.19;5083123;28;20455;-62
2022/11/04 05:02:17;;;;;;;11.20;9.20;;;;;;;10.43;86.17;99048.34;5079682;28;20521;-63
2022/11/04 05:04:44;;;;;;;9.40;8.40;;;;;;;10.36;86.18;99055.38;5083247;28;20581;-63
2022/11/04 05:07:12;;;;;;;10.43;9.30;;;;;;;10.23;86.98;99063.03;5082377;28;20510;-62
2022/11/04 05:09:38;;;;;;;10.60;8.23;;;;;;;10.25;86.55;99069.88;5083780;28;20440;-63
2022/11/04 05:12:05;;;;;;;10.03;9.00;;;;;;;10.34;86.31;99070.72;5082032;28;20491;-62
2022/11/04 05:14:32;;;;;;;11.70;9.10;;;;;;;10.30;85.94;99082.75;5082449;28;20445;-62
2022/11/04 05:16:58;;;;;;;9.53;8.53;;;;;;;10.31;85.73;99085.28;5080671;28;20778;-62
2022/11/04 05:19:25;;;;;;;9.50;8.00;;;;;;;10.32;85.80;99078.09;5081416;28;20452;-63
2022/11/04 05:21:52;;;;;;;10.13;8.17;;;;;;;10.26;85.86;99082.25;5079731;28;20528;-62
2022/11/04 05:24:20;;;;;;;10.43;9.00;;;;;;;10.31;85.46;99085.28;5082089;28;20441;-62
2022/11/04 05:26:46;;;;;;;9.83;8.83;;;;;;;10.33;85.21;99085.94;5078515;28;20599;-62
2022/11/04 05:29:13;;;;;;;10.13;8.43;;;;;;;10.37;85.70;99083.75;5080685;28;20459;-63
2022/11/04 05:31:40;;;;;;;9.13;8.23;;;;;;;10.37;85.81;99094.44;5078274;28;20476;-67
2022/11/04 05:34:06;;;;;;;10.43;9.33;;;;;;;10.37;85.91;99089.09;5081972;28;20478;-67
2022/11/04 05:36:33;;;;;;;10.80;8.20;;;;;;;10.36;86.05;99104.31;5079399;28;20472;-66
2022/11/04 05:38:59;;;;;;;9.90;8.43;;;;;;;10.32;86.42;99102.97;5089341;28;20826;-66
2022/11/04 05:41:27;;;;;;;12.13;9.63;;;;;;;10.42;86.31;99105.47;5081390;28;20487;-67
2022/11/04 05:43:54;;;;;;;9.73;8.73;;;;;;;10.31;86.26;99101.31;5085151;28;20964;-67
2022/11/04 05:46:21;;;;;;;10.10;8.23;;;;;;;10.32;85.15;99112.81;5081055;28;20476;-67
2022/11/04 05:48:48;;;;;;;9.70;8.70;;;;;;;10.29;85.21;99113.94;5085887;28;20523;-67
2022/11/04 05:51:15;;;;;;;9.50;8.50;;;;;;;10.14;85.61;99110.28;5081231;28;20484;-67
2022/11/04 05:53:41;;;;;;;10.93;8.90;;;;;;;10.13;85.82;99103.25;5087013;28;20468;-67
2022/11/04 05:56:08;;;;;;;10.77;9.37;;;;;;;10.26;86.14;99106.28;5082751;28;20464;-67
2022/11/04 05:58:36;;;;;;;12.13;8.90;;;;;;;10.14;86.57;99102.28;5095904;28;20460;-67
2022/11/04 06:01:14;;;;;;;9.63;8.60;;;;;;;10.11;87.06;99100.75;5080528;28;20468;-66
2022/11/04 06:03:41;;;;;;;12.17;8.40;;;;;;;10.29;86.67;99097.91;5062803;28;20461;-67
2022/11/04 06:06:07;;;;;;;10.53;9.40;;;;;;;10.30;87.21;99107.59;5080005;28;20468;-69
2022/11/04 06:08:34;;;;;;;12.03;8.30;;;;;;;10.31;87.09;99109.31;5095919;28;20529;-67
2022/11/04 06:11:01;;;;;;;10.87;8.50;;;;;;;10.28;87.47;99131.00;5102102;28;20479;-63
2022/11/04 06:13:27;;;;;;;12.30;8.37;;;;;;;10.29;87.52;99135.31;5100517;28;20475;-63
2022/11/04 06:15:55;;;;;;;15.50;9.67;;;;;;;10.23;87.95;99145.84;5087979;28;20495;-65
2022/11/04 06:18:22;;;;;;;16.43;9.10;;;;;;;10.17;87.74;99145.50;5098166;28;20509;-65
2022/11/04 06:20:48;;;;;;;15.87;9.10;;;;;;;10.14;87.74;99145.00;5083547;28;20476;-65
2022/11/04 06:23:15;;;;;;;12.40;9.77;;;;;;;10.29;87.89;99159.34;5083484;28;20480;-65
2022/11/04 06:25:42;;;;;;;12.03;9.20;;;;;;;10.25;87.57;99162.53;5080956;28;20497;-66
2022/11/04 06:28:08;;;;;;;13.13;9.10;;;;;;;10.16;87.97;99159.03;5081599;28;20452;-66
2022/11/04 06:30:35;;;;;;;9.83;7.77;;;;;;;10.19;87.92;99161.38;5094438;28;20475;-66
2022/11/04 06:33:03;;;;;;;12.70;8.17;;;;;;;10.24;87.60;99166.19;5096423;28;20456;-66
2022/11/04 06:35:30;;;;;;;12.70;9.30;;;;;;;10.23;87.84;99168.03;5080184;28;20903;-65
2022/11/04 06:37:56;;;;;;;12.30;9.13;;;;;;;10.25;87.61;99174.06;5100319;28;20887;-66
2022/11/04 06:40:23;;;;;;;15.80;9.30;;;;;;;10.29;87.72;99169.22;5092853;28;20448;-66
2022/11/04 06:42:50;;;;;;;12.60;9.50;;;;;;;10.26;87.06;99174.88;5079621;28;20522;-65
2022/11/04 06:45:17;;;;;;;13.93;8.83;;;;;;;10.18;87.14;99173.88;5080344;28;20527;-66
2022/11/04 06:47:43;;;;;;;9.23;7.50;;;;;;;10.22;87.23;99178.88;5095221;28;20443;-66
2022/11/04 06:50:13;;;;;;;12.80;9.40;;;;;;;10.21;87.57;99174.53;5096185;28;20437;-66
2022/11/04 06:52:40;;;;;;;11.77;8.30;;;;;;;10.21;87.65;99175.41;5081098;28;20488;-65
2022/11/04 06:55:08;;;;;;;10.37;7.63;;;;;;;10.22;87.48;99190.41;5080209;28;20472;-65
2022/11/04 06:57:35;;;;;;;13.40;7.07;;;;;;;10.14;87.74;99198.41;5075584;28;20456;-66
2022/11/04 07:00:02;;;;;;;10.37;7.23;;;;;;;10.19;87.35;99204.09;5081035;28;20487;-66
2022/11/04 07:02:28;;;;;;;10.47;8.27;;;;;;;10.26;86.99;99202.44;5079743;28;20483;-67
2022/11/04 07:04:55;;;;;;;10.07;7.53;;;;;;;10.21;87.35;99207.44;5092231;28;20435;-66
2022/11/04 07:07:23;;;;;;;12.97;7.73;;;;;;;10.15;87.09;99206.25;5084034;28;20491;-66
2022/11/04 07:09:50;;;;;;;9.83;7.07;;;;;;;10.23;86.82;99212.63;5102109;28;20430;-66
2022/11/04 07:12:37;;;;;;;9.90;7.37;;;;;;;10.31;86.40;99216.19;5085841;28;20472;-66
2022/11/04 07:15:05;;;;;;;10.60;8.17;;;;;;;10.16;86.73;99209.78;4978998;28;20492;-66
2022/11/04 07:17:33;;;;;;;10.50;7.70;;;;;;;10.31;86.40;99209.94;4977229;28;20619;-66
2022/11/04 07:20:00;;;;;;;12.80;8.40;;;;;;;10.27;86.44;99217.47;4978519;28;20456;-66
2022/11/04 07:22:28;;;;;;;11.17;7.30;;;;;;;10.38;85.61;99216.38;4977440;28;21049;-66
2022/11/04 07:24:55;;;;;;;10.77;7.67;;;;;;;10.40;85.46;99214.34;4979769;28;20480;-66
2022/11/04 07:27:22;;;;;;;9.83;7.10;;;;;;;10.36;85.91;99211.19;4977587;28;21049;-66
2022/11/04 07:29:48;;;;;;;12.83;7.70;;;;;;;10.28;85.76;99218.31;4978840;28;20483;-66
2022/11/04 07:32:15;;;;;;;7.40;6.07;;;;;;;10.30;86.12;99224.31;4974265;28;20482;-66
2022/11/04 07:34:42;;;;;;;12.57;6.93;;;;;;;10.43;85.69;99224.69;4977774;28;20536;-66
2022/11/04 07:37:09;;;;;;;12.00;7.77;;;;;;;10.52;84.99;99218.38;4978460;28;20504;-66
2022/11/04 07:39:37;;;;;;;11.70;6.73;;;;;;;10.73;84.87;99222.41;4976677;28;20460;-65
2022/11/04 07:42:04;;;;;;;10.53;6.90;;;;;;;10.90;83.25;99217.88;4976825;28;20492;-66
2022/11/04 07:44:31;;;;;;;9.53;7.03;;;;;;;10.84;82.79;99230.06;4978967;28;20436;-66
2022/11/04 07:46:57;;;;;;;10.57;5.70;;;;;;;10.68;83.65;99232.75;5075920;28;20729;-66
2022/11/04 07:49:24;;;;;;;11.80;5.63;;;;;;;10.60;84.09;99233.56;5079262;28;20921;-66
2022/11/04 07:51:51;;;;;;;14.77;6.30;;;;;;;10.49;84.69;99229.38;5078958;28;20498;-66
2022/11/04 07:54:18;;;;;;;7.23;5.70;;;;;;;10.67;83.96;99223.88;5080418;28;20433;-66
2022/11/04 07:56:46;;;;;;;11.83;6.53;;;;;;;11.09;82.60;99232.72;5079044;28;20468;-66
2022/11/04 07:59:13;;;;;;;7.13;5.37;;;;;;;11.47;81.42;99241.03;5080052;28;20488;-66
2022/11/04 08:01:40;;;;;;;13.50;5.50;;;;;;;11.88;78.88;99232.84;5078807;28;20543;-66
2022/11/04 08:04:07;;;;;;;7.40;4.43;;;;;;;12.33;77.62;99227.81;5079700;28;20437;-66
2022/11/04 08:06:34;;;;;;;9.10;5.20;;;;;;;13.94;69.81;99232.03;5079292;28;20491;-66
2022/11/04 08:09:00;;;;;;;9.63;4.33;;;;;;;14.38;67.68;99228.41;5080323;28;20432;-66
2022/11/04 08:11:28;;;;;;;9.30;3.83;;;;;;;16.36;59.73;99226.47;5077833;28;20548;-67
2022/11/04 08:13:56;;;;;;;6.70;3.80;;;;;;;17.77;55.17;99234.59;5079991;28;20460;-67
2022/11/04 08:16:24;;;;;;;10.97;3.73;;;;;;;16.41;57.18;99249.31;5077802;28;20471;-66
2022/11/04 08:18:52;;;;;;;4.97;2.73;;;;;;;14.92;60.94;99245.09;5078665;28;20435;-67
2022/11/04 08:21:20;;;;;;;7.87;3.80;;;;;;;14.45;64.39;99255.38;5078925;28;20479;-66
2022/11/04 08:23:47;;;;;;;8.47;3.23;;;;;;;14.97;64.33;99258.81;5081040;28;21023;-66
2022/11/04 08:26:16;;;;;;;4.90;2.80;;;;;;;15.31;61.30;99259.91;5080912;28;20564;-66
2022/11/04 08:28:43;;;;;;;9.97;3.23;;;;;;;15.88;59.29;99266.09;5084043;28;20468;-66
2022/11/04 08:31:14;;;;;;;8.23;3.83;;;;;;;16.21;58.39;99265.44;5082503;28;21013;-67
2022/11/04 08:33:41;;;;;;;4.93;3.30;;;;;;;16.82;55.78;99273.50;5082032;28;20463;-67
2022/11/04 08:36:10;;;;;;;6.97;2.57;;;;;;;16.82;55.27;99270.78;5083616;28;20493;-67
2022/11/04 08:38:37;;;;;;;10.33;2.97;;;;;;;17.01;54.26;99254.84;5083645;28;20534;-67
2022/11/04 08:41:05;;;;;;;6.07;2.30;;;;;;;18.47;51.40;99256.41;5081605;28;20503;-67
2022/11/04 08:43:33;;;;;;;8.53;2.20;;;;;;;17.09;53.98;99257.34;5082836;28;20503;-67
2022/11/04 08:45:59;;;;;;;8.93;3.23;;;;;;;16.56;55.67;99264.31;5082834;28;20530;-67
2022/11/04 08:48:27;;;;;;;10.37;3.30;;;;;;;16.80;55.28;99261.22;5090460;28;20490;-67
2022/11/04 08:50:57;;;;;;;5.80;2.90;;;;;;;16.91;54.54;99258.78;5102926;28;20504;-66
2022/11/04 08:53:24;;;;;;;7.93;3.50;;;;;;;16.87;54.23;99254.84;5102906;28;20541;-66
2022/11/04 08:55:51;;;;;;;9.23;2.30;;;;;;;16.13;56.16;99269.13;5102423;28;20466;-66
2022/11/04 08:58:18;;;;;;;8.60;2.80;;;;;;;14.56;60.61;99268.28;5095801;28;20467;-67
2022/11/04 09:00:45;;;;;;;6.03;3.53;;;;;;;13.66;64.01;99273.00;5081989;28;20489;-67
2022/11/04 09:03:12;;;;;;;4.77;3.27;;;;;;;13.57;65.66;99282.13;5081753;28;21027;-67
2022/11/04 09:05:43;;;;;;;3.60;2.70;;;;;;;13.18;66.79;99283.97;5082316;28;20464;-66
2022/11/04 09:08:10;;;;;;;9.20;4.03;;;;;;;13.33;67.25;99292.13;5083060;28;20479;-67
2022/11/04 09:10:40;;;;;;;4.70;3.00;;;;;;;13.26;67.51;99282.22;5081675;28;20500;-67
2022/11/04 09:13:09;;;;;;;8.50;3.20;;;;;;;12.93;69.32;99295.91;5082812;28;20480;-67
2022/11/04 09:15:35;;;;;;;9.80;3.40;;;;;;;12.69;69.35;99292.41;5082212;28;20468;-66
2022/11/04 09:18:02;;;;;;;7.40;3.70;;;;;;;12.52;71.37;99280.13;5080138;28;20460;-66
2022/11/04 09:20:30;;;;;;;6.70;3.00;;;;;;;12.21;73.36;99280.97;5082812;28;20490;-66
2022/11/04 09:22:58;;;;;;;6.53;2.97;;;;;;;12.21;73.19;99294.38;5082519;28;20452;-66
2022/11/04 09:25:25;;;;;;;8.40;4.70;;;;;;;12.38;72.65;99290.59;5081511;28;20432;-66
2022/11/04 09:27:51;;;;;;;8.97;3.33;;;;;;;12.27;73.36;99287.47;5085603;28;20544;-67
2022/11/04 09:30:18;;;;;;;8.90;4.17;;;;;;;12.20;74.36;99287.31;5101937;28;20443;-66
2022/11/04 09:32:45;;;;;;;8.23;3.77;;;;;;;12.22;73.78;99290.66;5086161;28;20528;-66
2022/11/04 09:35:11;;;;;;;14.53;5.00;;;;;;;12.47;73.27;99301.28;5080719;28;20429;-67
2022/11/04 09:37:38;;;;;;;7.10;4.73;;;;;;;12.29;73.94;99304.19;5083293;28;20448;-66
2022/11/04 09:40:10;;;;;;;16.80;4.87;;;;;;;12.18;73.50;99305.41;5095677;28;20444;-66
2022/11/04 09:42:50;;;;;;;11.83;4.70;;;;;;;12.21;75.16;99310.44;5097933;28;20491;-67
2022/11/04 09:45:18;;;;;;;7.50;5.10;;;;;;;11.84;75.09;99315.41;5101556;28;20451;-67
2022/11/04 09:47:47;;;;;;;5.80;4.30;;;;;;;11.79;76.04;99315.06;5099695;28;20484;-65
2022/11/04 09:50:19;;;;;;;10.03;4.53;;;;;;;12.05;76.43;99319.38;5081626;28;20444;-66
2022/11/04 09:52:50;;;;;;;6.40;4.40;;;;;;;12.06;75.10;99315.69;5081656;28;20478;-66
2022/11/04 09:55:21;;;;;;;7.87;5.27;;;;;;;12.08;74.79;99320.88;5080792;28;20444;-66
2022/11/04 09:57:53;;;;;;;9.80;6.40;;;;;;;12.33;73.98;99322.44;5083032;28;20474;-67
2022/11/04 10:00:20;;;;;;;7.87;5.50;;;;;;;12.72;73.20;99315.34;5101001;28;21046;-66
2022/11/04 10:02:54;;;;;;;9.57;6.57;;;;;;;12.50;72.29;99320.53;5100313;28;20455;-68
2022/11/04 10:05:31;;;;;;;15.50;8.50;;;;;;;12.99;71.84;99325.56;5101904;28;20418;-68
2022/11/04 10:08:16;;;;;;;12.80;7.10;;;;;;;13.04;70.29;99318.81;5102137;28;20482;-68
2022/11/04 10:10:50;;;;;;;11.90;7.90;;;;;;;13.19;69.69;99315.19;5100892;28;20479;-68
2022/11/04 10:13:26;;;;;;;9.77;5.93;;;;;;;13.00;70.25;99324.56;5101546;28;20935;-69
2022/11/04 10:16:03;;;;;;;8.30;6.40;;;;;;;13.18;70.23;99316.19;5100260;28;20486;-69
2022/11/04 10:18:39;;;;;;;10.97;5.70;;;;;;;12.99;70.02;99319.38;5092812;28;20956;-69
2022/11/04 10:21:13;;;;;;;9.60;6.47;;;;;;;14.40;66.78;99323.16;5080930;28;20472;-69
2022/11/04 10:23:44;;;;;;;9.47;5.90;;;;;;;14.93;63.27;99322.94;5079992;28;20700;-68
2022/11/04 10:26:16;;;;;;;11.17;5.93;;;;;;;14.28;64.34;99330.84;5081413;28;20548;-68
2022/11/04 10:28:45;;;;;;;11.17;6.00;;;;;;;14.81;63.17;99328.00;5081314;28;20456;-68
2022/11/04 10:31:14;;;;;;;8.03;5.73;;;;;;;14.79;61.55;99329.19;5079124;28;20472;-67
2022/11/04 10:33:43;;;;;;;8.67;5.90;;;;;;;14.06;64.95;99326.44;5081469;28;20511;-69
2022/11/04 10:36:11;;;;;;;9.67;5.80;;;;;;;14.25;64.66;99325.03;5080646;28;20488;-67
2022/11/04 10:38:40;;;;;;;8.17;6.20;;;;;;;13.76;65.07;99321.03;5087311;28;20530;-68
2022/11/04 10:41:22;;;;;;;6.93;5.70;;;;;;;13.52;66.57;99328.34;5100537;28;21006;-68
2022/11/04 10:43:49;;;;;;;9.30;5.97;;;;;;;14.46;64.07;99329.63;5089404;28;20471;-68
2022/11/04 10:46:29;;;;;;;11.97;6.20;;;;;;;15.85;58.54;99318.56;5078892;28;20469;-68
2022/11/04 10:49:01;;;;;;;7.20;4.80;;;;;;;16.10;55.90;99321.59;5080774;28;20509;-68
2022/11/04 10:51:28;;;;;;;9.30;5.10;;;;;;;14.90;59.41;99334.09;5080818;28;20477;-68
2022/11/04 10:53:56;;;;;;;9.37;5.50;;;;;;;13.55;64.32;99344.06;5079351;28;20492;-68
2022/11/04 10:56:33;;;;;;;9.93;5.97;;;;;;;13.46;65.71;99347.88;5080828;28;21009;-68
2022/11/04 10:59:09;;;;;;;10.70;5.80;;;;;;;14.50;62.30;99349.75;5080401;28;20480;-69
2022/11/04 11:01:36;;;;;;;7.07;6.00;;;;;;;14.43;61.80;99348.84;5078850;28;20488;-68
2022/11/04 11:04:07;;;;;;;12.87;6.10;;;;;;;13.93;64.17;99354.78;5080693;28;20578;-68
2022/11/04 11:06:35;;;;;;;7.70;5.63;;;;;;;16.15;61.23;99350.66;5080590;28;20477;-68
2022/11/04 11:09:13;;;;;;;10.23;4.57;;;;;;;17.75;52.78;99352.94;5080001;28;20519;-68
2022/11/04 11:11:46;;;;;;;8.57;4.90;;;;;;;16.37;56.06;99359.50;5080283;28;20487;-68
2022/11/04 11:14:18;;;;;;;8.33;4.20;;;;;;;15.60;58.81;99351.28;5080054;28;20448;-68
2022/11/04 11:16:47;;;;;;;11.33;5.20;;;;;;;16.49;55.90;99363.28;5078371;28;20488;-67
2022/11/04 11:19:16;;;;;;;10.80;4.80;;;;;;;15.69;58.07;99357.34;5080514;28;20456;-68
2022/11/04 11:21:46;;;;;;;11.13;4.70;;;;;;;17.73;54.66;99357.72;5080623;28;20559;-68
2022/11/04 11:24:16;;;;;;;8.17;4.37;;;;;;;18.57;50.53;99361.47;5079638;28;20453;-68
2022/11/04 11:26:48;;;;;;;5.90;4.30;;;;;;;17.79;50.53;99364.97;5080326;28;20485;-68
2022/11/04 11:29:25;;;;;;;6.00;4.20;;;;;;;16.88;53.42;99371.75;5092047;28;20471;-69
2022/11/04 11:31:52;;;;;;;7.63;4.23;;;;;;;17.45;53.08;99373.09;5091074;28;20506;-68
2022/11/04 11:34:22;;;;;;;8.77;4.10;;;;;;;18.09;50.23;99362.69;5079865;28;20886;-68
2022/11/04 11:36:49;;;;;;;8.10;4.23;;;;;;;17.00;52.18;99362.03;5079981;28;20541;-68
2022/11/04 11:39:18;;;;;;;5.70;3.90;;;;;;;15.70;56.29;99353.66;5091010;28;20446;-68
2022/11/04 11:41:54;;;;;;;8.83;4.03;;;;;;;15.17;58.81;99366.66;5099756;28;20485;-69
2022/11/04 11:44:30;;;;;;;8.47;4.20;;;;;;;15.63;56.82;99355.47;5100751;28;20489;-68
2022/11/04 11:47:00;;;;;;;6.80;4.70;;;;;;;15.67;56.57;99354.03;5098378;28;20482;-68
2022/11/04 11:49:30;;;;;;;9.30;4.20;;;;;;;16.98;53.13;99353.31;5087275;28;20901;-70
2022/11/04 11:52:02;;;;;;;7.03;3.67;;;;;;;16.19;55.64;99352.75;5080080;28;20866;-68
2022/11/04 11:54:32;;;;;;;8.93;4.30;;;;;;;17.60;51.57;99354.00;5079071;28;20473;-69
2022/11/04 11:57:04;;;;;;;10.77;3.30;;;;;;;17.01;52.20;99360.16;5080130;28;21079;-70
2022/11/04 11:59:38;;;;;;;5.70;3.93;;;;;;;14.75;58.34;99361.03;5083215;28;20443;-69
2022/11/04 12:02:22;;;;;;;6.40;4.10;;;;;;;15.27;58.29;99369.03;5082366;28;20483;-69
2022/11/04 12:04:50;;;;;;;5.50;3.97;;;;;;;15.02;59.01;99364.03;5084336;28;20865;-68
2022/11/04 12:07:23;;;;;;;9.00;4.57;;;;;;;15.61;57.51;99358.34;5100961;28;20536;-69
2022/11/04 12:09:54;;;;;;;5.40;4.13;;;;;;;15.11;57.70;99362.06;5104620;28;20458;-68
2022/11/04 12:12:38;;;;;;;9.10;4.80;;;;;;;14.02;62.11;99352.84;5103623;28;20484;-67
2022/11/04 12:15:23;;;;;;;6.10;4.37;;;;;;;14.37;62.91;99338.81;5101128;28;20461;-68